Time;durP1;ratioP1;P1;durP2;ratioP2;P2;SDS_P1;SDS_P2;PMS_P1;PMS_P2;Temp;Humidity;BMP_temperature;BMP_pressure;BME280_temperature;BME280_humidity;BME280_pressure;Samples;Min_cycle;Max_cycle;Signal;HPM_P1;HPM_P2
2022/05/03 00:01:28;;;;;;;;;;;19.40;99.90;;;;;;5114795;28;19914;-37
2022/05/03 00:04:01;;;;;;;;;;;19.40;99.90;;;;;;5114434;28;19908;-37
2022/05/03 00:06:33;;;;;;;;;;;19.50;99.90;;;;;;5114631;28;19957;-37
2022/05/03 00:09:03;;;;;;;;;;;19.60;99.90;;;;;;5114579;28;19915;-37
2022/05/03 00:11:31;;;;;;;;;;;19.50;99.90;;;;;;5114432;28;19907;-37
2022/05/03 00:14:15;;;;;;;;;;;19.60;99.90;;;;;;5096076;28;19908;-37
2022/05/03 00:16:41;;;;;;;;;;;19.60;99.90;;;;;;5114555;28;19908;-37
2022/05/03 00:19:07;;;;;;;;;;;19.70;99.90;;;;;;5114641;28;19934;-37
2022/05/03 00:21:34;;;;;;;;;;;19.70;99.90;;;;;;5114415;28;19907;-37
2022/05/03 00:23:59;;;;;;;;;;;19.80;99.90;;;;;;5114104;28;19960;-37
2022/05/03 00:26:28;;;;;;;;;;;19.70;99.90;;;;;;5114298;28;19915;-37
2022/05/03 00:28:53;;;;;;;;;;;19.70;99.90;;;;;;5114424;28;19916;-37
2022/05/03 00:31:19;;;;;;;;;;;19.70;99.90;;;;;;5114470;28;19930;-37
2022/05/03 00:33:45;;;;;;;;;;;19.70;99.90;;;;;;5114579;28;19919;-37
2022/05/03 00:36:10;;;;;;;;;;;19.70;99.90;;;;;;5096159;28;20355;-37
2022/05/03 00:38:36;;;;;;;;;;;19.60;99.90;;;;;;5114389;28;19958;-37
2022/05/03 00:41:04;;;;;;;;;;;19.60;99.90;;;;;;5114369;28;19908;-37
2022/05/03 00:43:48;;;;;;;;;;;19.70;99.90;;;;;;5114217;28;19994;-37
2022/05/03 00:46:16;;;;;;;;;;;19.60;99.90;;;;;;5114211;28;19938;-37
2022/05/03 00:48:56;;;;;;;;;;;19.70;99.90;;;;;;5113917;28;19912;-37
2022/05/03 00:51:22;;;;;;;;;;;19.70;99.90;;;;;;5114203;28;19974;-37
2022/05/03 00:54:04;;;;;;;;;;;19.60;99.90;;;;;;5114254;28;19921;-37
2022/05/03 00:56:35;;;;;;;;;;;19.60;99.90;;;;;;5118264;28;19908;-37
2022/05/03 00:59:19;;;;;;;;;;;19.60;99.90;;;;;;5117985;28;19915;-37
2022/05/03 01:01:44;;;;;;;;;;;19.70;99.90;;;;;;5118074;28;19907;-37
2022/05/03 01:04:13;;;;;;;;;;;19.60;99.90;;;;;;5117749;28;19908;-37
2022/05/03 01:06:50;;;;;;;;;;;19.60;99.90;;;;;;5117629;28;20376;-37
2022/05/03 01:09:19;;;;;;;;;;;19.70;99.90;;;;;;5118007;28;19954;-37
2022/05/03 01:11:46;;;;;;;;;;;19.60;99.90;;;;;;5117723;28;19908;-37
2022/05/03 01:14:23;;;;;;;;;;;19.60;99.90;;;;;;5117989;28;20291;-37
2022/05/03 01:16:55;;;;;;;;;;;19.50;99.90;;;;;;5117601;28;19907;-37
2022/05/03 01:19:21;;;;;;;;;;;19.40;99.90;;;;;;5117642;28;20308;-37
2022/05/03 01:21:49;;;;;;;;;;;19.40;99.90;;;;;;5117766;28;19918;-37
2022/05/03 01:24:18;;;;;;;;;;;19.40;99.90;;;;;;5117480;28;19947;-37
2022/05/03 01:27:06;;;;;;;;;;;19.40;99.90;;;;;;5117569;28;19990;-37
2022/05/03 01:29:32;;;;;;;;;;;19.50;99.90;;;;;;5111421;28;19912;-37
2022/05/03 01:31:59;;;;;;;;;;;19.50;99.90;;;;;;5117300;28;19920;-37
2022/05/03 01:34:25;;;;;;;;;;;19.60;99.90;;;;;;5117616;28;20303;-37
2022/05/03 01:37:00;;;;;;;;;;;19.60;99.90;;;;;;5099512;28;19915;-37
2022/05/03 01:39:44;;;;;;;;;;;19.60;99.90;;;;;;5117197;28;19915;-37
2022/05/03 01:42:18;;;;;;;;;;;19.60;99.90;;;;;;5117480;28;19947;-37
2022/05/03 01:44:57;;;;;;;;;;;19.60;99.90;;;;;;5117068;28;19930;-37
2022/05/03 01:47:23;;;;;;;;;;;19.60;99.90;;;;;;5117294;28;20345;-37
2022/05/03 01:50:18;;;;;;;;;;;19.70;99.90;;;;;;5116971;28;19908;-37
2022/05/03 01:52:43;;;;;;;;;;;19.70;99.90;;;;;;5117303;28;19908;-37
2022/05/03 01:55:09;;;;;;;;;;;19.70;99.90;;;;;;5117201;28;19908;-37
2022/05/03 01:57:34;;;;;;;;;;;19.70;99.90;;;;;;5117089;28;19951;-37
2022/05/03 02:00:03;;;;;;;;;;;19.60;99.90;;;;;;5117380;28;19949;-37
2022/05/03 02:02:41;;;;;;;;;;;19.70;99.90;;;;;;5116940;28;19908;-36
2022/05/03 02:05:07;;;;;;;;;;;19.70;99.90;;;;;;5116499;28;19926;-37
2022/05/03 02:07:35;;;;;;;;;;;19.60;99.90;;;;;;5116662;28;19916;-37
2022/05/03 02:10:05;;;;;;;;;;;19.60;99.90;;;;;;5116606;28;19976;-37
2022/05/03 02:12:31;;;;;;;;;;;19.60;99.90;;;;;;5116769;28;20354;-37
2022/05/03 02:15:02;;;;;;;;;;;19.60;99.90;;;;;;5116714;28;19907;-37
2022/05/03 02:17:37;;;;;;;;;;;19.60;99.90;;;;;;5098390;28;20019;-37
2022/05/03 02:20:05;;;;;;;;;;;19.60;99.90;;;;;;5116392;28;19915;-37
2022/05/03 02:22:31;;;;;;;;;;;19.60;99.90;;;;;;5116587;28;20270;-37
2022/05/03 02:25:11;;;;;;;;;;;19.60;99.90;;;;;;5098286;28;19908;-37
2022/05/03 02:27:38;;;;;;;;;;;19.50;99.90;;;;;;5116299;28;19911;-37
2022/05/03 02:30:04;;;;;;;;;;;19.50;99.90;;;;;;5116513;28;19912;-37
2022/05/03 02:32:48;;;;;;;;;;;19.60;99.90;;;;;;5115945;28;20033;-37
2022/05/03 02:35:17;;;;;;;;;;;19.70;99.90;;;;;;5116497;28;19908;-37
2022/05/03 02:37:49;;;;;;;;;;;19.80;99.90;;;;;;5116111;28;19914;-37
2022/05/03 02:40:17;;;;;;;;;;;19.80;99.90;;;;;;5116399;28;19911;-37
2022/05/03 02:42:44;;;;;;;;;;;19.80;99.90;;;;;;5115925;28;19922;-37
2022/05/03 02:45:11;;;;;;;;;;;19.80;99.90;;;;;;5116051;28;19958;-37
2022/05/03 02:47:42;;;;;;;;;;;20.00;99.90;;;;;;5116019;28;19935;-37
2022/05/03 02:50:29;;;;;;;;;;;20.00;99.90;;;;;;5116002;28;19908;-37
2022/05/03 02:53:03;;;;;;;;;;;20.00;99.90;;;;;;5115625;28;19908;-37
2022/05/03 02:55:32;;;;;;;;;;;19.90;99.90;;;;;;5115911;28;20050;-37
2022/05/03 02:58:06;;;;;;;;;;;20.00;99.90;;;;;;5115639;28;19911;-37
2022/05/03 03:03:59;;;;;;;;;;;19.90;99.90;;;;;;5115668;28;19961;-37
2022/05/03 03:06:30;;;;;;;;;;;19.90;99.90;;;;;;5115712;28;19911;-37
2022/05/03 03:08:55;;;;;;;;;;;19.90;99.90;;;;;;5115515;28;20362;-37
2022/05/03 03:11:30;;;;;;;;;;;19.80;99.90;;;;;;5115648;28;19907;-37
2022/05/03 03:14:02;;;;;;;;;;;19.80;99.90;;;;;;5115401;28;19947;-37
2022/05/03 03:16:31;;;;;;;;;;;19.80;99.90;;;;;;5097266;28;19937;-37
2022/05/03 03:19:33;;;;;;;;;;;19.80;99.90;;;;;;5115046;28;20338;-37
2022/05/03 03:22:00;;;;;;;;;;;19.80;99.90;;;;;;5072424;28;19908;-37
2022/05/03 03:24:27;;;;;;;;;;;19.70;99.90;;;;;;5106617;28;19908;-37
2022/05/03 03:26:54;;;;;;;;;;;19.60;99.90;;;;;;5114784;28;19912;-37
2022/05/03 03:29:20;;;;;;;;;;;19.60;99.90;;;;;;5115331;28;20278;-37
2022/05/03 03:31:46;;;;;;;;;;;19.50;99.90;;;;;;5114850;28;19934;-36
2022/05/03 03:34:11;;;;;;;;;;;19.50;99.90;;;;;;5096865;28;19908;-37
2022/05/03 03:36:37;;;;;;;;;;;19.50;99.90;;;;;;5115123;28;19912;-37
2022/05/03 03:39:03;;;;;;;;;;;19.50;99.90;;;;;;5115002;28;20392;-37
2022/05/03 03:41:28;;;;;;;;;;;19.50;99.90;;;;;;5114906;28;19911;-37
2022/05/03 03:43:54;;;;;;;;;;;19.50;99.90;;;;;;5114973;28;19980;-37
2022/05/03 03:46:19;;;;;;;;;;;19.50;99.90;;;;;;5114625;28;19964;-37
2022/05/03 03:48:45;;;;;;;;;;;19.50;99.90;;;;;;5114641;28;19912;-37
2022/05/03 03:51:13;;;;;;;;;;;19.40;99.90;;;;;;5114906;28;19922;-37
2022/05/03 03:53:39;;;;;;;;;;;19.50;99.90;;;;;;5114524;28;19908;-36
2022/05/03 03:56:05;;;;;;;;;;;19.50;99.90;;;;;;5114851;28;19908;-37
2022/05/03 03:58:30;;;;;;;;;;;19.40;99.90;;;;;;5114530;28;19907;-37
2022/05/03 04:00:56;;;;;;;;;;;19.40;99.90;;;;;;5114852;28;19908;-37
2022/05/03 04:03:22;;;;;;;;;;;19.40;99.90;;;;;;5114529;28;19908;-37
2022/05/03 04:05:47;;;;;;;;;;;19.40;99.90;;;;;;5114332;28;19961;-37
2022/05/03 04:08:13;;;;;;;;;;;19.40;99.90;;;;;;5114611;28;20006;-37
2022/05/03 04:10:38;;;;;;;;;;;19.40;99.90;;;;;;5115004;28;19954;-37
2022/05/03 04:13:04;;;;;;;;;;;19.40;99.90;;;;;;5114455;28;19950;-37
2022/05/03 04:15:31;;;;;;;;;;;19.30;99.90;;;;;;5114287;28;19914;-37
2022/05/03 04:17:56;;;;;;;;;;;19.40;99.90;;;;;;5114187;28;19911;-37
2022/05/03 04:20:22;;;;;;;;;;;19.40;99.90;;;;;;5114166;28;19960;-37
2022/05/03 04:22:47;;;;;;;;;;;19.40;99.90;;;;;;5114439;28;19936;-37
2022/05/03 04:25:13;;;;;;;;;;;19.40;99.90;;;;;;5114226;28;19912;-37
2022/05/03 04:27:39;;;;;;;;;;;19.40;99.90;;;;;;5114018;28;19919;-37
2022/05/03 04:30:04;;;;;;;;;;;19.50;99.90;;;;;;5116000;28;19914;-37
2022/05/03 04:32:31;;;;;;;;;;;19.50;99.90;;;;;;5118558;28;19919;-37
2022/05/03 04:34:57;;;;;;;;;;;19.40;99.90;;;;;;5118569;28;19953;-37
2022/05/03 04:37:23;;;;;;;;;;;19.40;99.90;;;;;;5118330;28;19911;-37
2022/05/03 04:39:48;;;;;;;;;;;19.50;99.90;;;;;;5118570;28;19998;-37
2022/05/03 04:42:14;;;;;;;;;;;19.40;99.90;;;;;;5117749;28;19908;-37
2022/05/03 04:44:39;;;;;;;;;;;19.40;99.90;;;;;;5118246;28;19961;-37
2022/05/03 04:47:05;;;;;;;;;;;19.40;99.90;;;;;;5117936;28;19912;-37
2022/05/03 04:49:31;;;;;;;;;;;19.40;99.90;;;;;;5118255;28;19919;-37
2022/05/03 04:51:56;;;;;;;;;;;19.40;99.90;;;;;;5118019;28;19912;-37
2022/05/03 04:54:23;;;;;;;;;;;19.40;99.90;;;;;;5118027;28;19908;-36
2022/05/03 04:56:54;;;;;;;;;;;19.30;99.90;;;;;;5118304;28;19908;-36
2022/05/03 04:59:20;;;;;;;;;;;19.30;99.90;;;;;;5118050;28;19908;-36
2022/05/03 05:01:46;;;;;;;;;;;19.30;99.90;;;;;;5117928;28;20401;-36
2022/05/03 05:04:11;;;;;;;;;;;19.40;99.90;;;;;;5117872;28;19908;-36
2022/05/03 05:06:37;;;;;;;;;;;19.40;99.90;;;;;;5099480;28;20263;-37
2022/05/03 05:09:02;;;;;;;;;;;19.30;99.90;;;;;;5117686;28;19912;-37
2022/05/03 05:11:28;;;;;;;;;;;19.30;99.90;;;;;;5117265;28;20361;-36
2022/05/03 05:13:53;;;;;;;;;;;19.30;99.90;;;;;;5117294;28;20353;-36
2022/05/03 05:16:19;;;;;;;;;;;19.30;99.90;;;;;;5117366;28;19914;-36
2022/05/03 05:18:44;;;;;;;;;;;19.40;99.90;;;;;;5117226;28;20076;-36
2022/05/03 05:21:11;;;;;;;;;;;19.40;99.90;;;;;;5117061;28;19922;-36
2022/05/03 05:23:37;;;;;;;;;;;19.20;99.90;;;;;;5117214;28;20377;-36
2022/05/03 05:26:03;;;;;;;;;;;19.20;99.90;;;;;;5116836;28;19962;-36
2022/05/03 05:28:28;;;;;;;;;;;19.00;99.90;;;;;;5117248;28;19932;-37
2022/05/03 05:30:54;;;;;;;;;;;19.00;99.90;;;;;;5117032;28;19915;-37
2022/05/03 05:33:20;;;;;;;;;;;19.10;99.90;;;;;;5117232;28;19924;-37
2022/05/03 05:35:46;;;;;;;;;;;19.20;99.90;;;;;;5116738;28;19914;-38
2022/05/03 05:38:16;;;;;;;;;;;19.30;99.90;;;;;;5116952;28;19914;-37
2022/05/03 05:40:42;;;;;;;;;;;19.30;99.90;;;;;;5116842;28;19934;-37
2022/05/03 05:43:07;;;;;;;;;;;19.30;99.90;;;;;;5116662;28;19911;-37
2022/05/03 05:45:33;;;;;;;;;;;19.40;99.90;;;;;;5116958;28;19954;-37
2022/05/03 05:47:58;;;;;;;;;;;19.30;99.90;;;;;;5116747;28;20241;-37
2022/05/03 05:50:24;;;;;;;;;;;19.30;99.90;;;;;;5116606;28;19908;-37
2022/05/03 05:55:35;;;;;;;;;;;19.30;99.90;;;;;;5116540;28;19918;-37
2022/05/03 05:58:00;;;;;;;;;;;19.30;99.90;;;;;;5115870;28;20350;-37
2022/05/03 06:00:26;;;;;;;;;;;19.30;99.90;;;;;;5116037;28;19927;-37
2022/05/03 06:02:51;;;;;;;;;;;19.20;99.90;;;;;;5116246;28;19930;-37
2022/05/03 06:05:17;;;;;;;;;;;19.30;99.90;;;;;;5115804;28;20369;-37
2022/05/03 06:07:42;;;;;;;;;;;19.20;99.90;;;;;;5116255;28;20378;-37
2022/05/03 06:10:08;;;;;;;;;;;19.20;99.90;;;;;;5115750;28;20266;-37
2022/05/03 06:12:34;;;;;;;;;;;19.20;99.90;;;;;;5115710;28;19908;-37
2022/05/03 06:14:59;;;;;;;;;;;19.20;99.90;;;;;;5116102;28;19907;-37
2022/05/03 06:17:25;;;;;;;;;;;19.20;99.90;;;;;;5115840;28;19915;-37
2022/05/03 06:19:50;;;;;;;;;;;19.20;99.90;;;;;;5116222;28;19915;-37
2022/05/03 06:22:16;;;;;;;;;;;19.10;99.90;;;;;;5115711;28;20373;-37
2022/05/03 06:24:45;;;;;;;;;;;19.20;99.90;;;;;;5116160;28;19908;-37
2022/05/03 06:27:11;;;;;;;;;;;19.20;99.90;;;;;;5115881;28;19912;-37
2022/05/03 06:29:37;;;;;;;;;;;19.20;99.90;;;;;;5115475;28;19912;-36
2022/05/03 06:32:02;;;;;;;;;;;19.20;99.90;;;;;;5115364;28;20346;-36
2022/05/03 06:34:28;;;;;;;;;;;19.20;99.90;;;;;;5115681;28;19908;-36
2022/05/03 06:36:53;;;;;;;;;;;19.10;99.90;;;;;;5115311;28;19922;-36
2022/05/03 06:39:19;;;;;;;;;;;19.10;99.90;;;;;;5115397;28;19939;-36
2022/05/03 06:41:44;;;;;;;;;;;19.10;99.90;;;;;;5097026;28;20342;-36
2022/05/03 06:44:10;;;;;;;;;;;19.10;99.90;;;;;;5116066;28;19949;-36
2022/05/03 06:46:36;;;;;;;;;;;19.20;99.90;;;;;;5115986;28;19919;-36
2022/05/03 06:49:01;;;;;;;;;;;19.10;99.90;;;;;;5115650;28;19915;-37
2022/05/03 06:51:27;;;;;;;;;;;19.10;99.90;;;;;;5115312;28;19911;-36
2022/05/03 06:53:52;;;;;;;;;;;19.20;99.90;;;;;;5114592;28;19977;-36
2022/05/03 06:56:18;;;;;;;;;;;19.10;99.90;;;;;;5115364;28;20323;-37
2022/05/03 06:58:43;;;;;;;;;;;19.10;99.90;;;;;;5115230;28;19919;-37
2022/05/03 07:01:10;;;;;;;;;;;19.10;99.90;;;;;;5115395;28;19960;-37
2022/05/03 07:03:36;;;;;;;;;;;19.10;99.90;;;;;;5115346;28;19961;-37
2022/05/03 07:06:02;;;;;;;;;;;19.10;99.90;;;;;;5115120;28;19916;-37
2022/05/03 07:08:28;;;;;;;;;;;19.10;99.90;;;;;;5115564;28;19916;-37
2022/05/03 07:10:54;;;;;;;;;;;19.10;99.90;;;;;;5115054;28;19914;-37
2022/05/03 07:13:23;;;;;;;;;;;19.00;99.90;;;;;;5115140;28;19907;-37
2022/05/03 07:15:56;;;;;;;;;;;18.90;99.90;;;;;;5115109;28;20362;-37
2022/05/03 07:23:50;;;;;;;;;;;19.20;99.90;;;;;;5114917;28;19915;-37
2022/05/03 07:26:16;;;;;;;;;;;19.50;99.90;;;;;;5114848;28;19912;-37
2022/05/03 07:28:41;;;;;;;;;;;19.70;99.90;;;;;;5114761;28;19911;-37
2022/05/03 07:31:08;;;;;;;;;;;19.80;99.90;;;;;;5114729;28;19964;-37
2022/05/03 07:33:34;;;;;;;;;;;20.00;99.90;;;;;;5114501;28;19954;-37
2022/05/03 07:35:59;;;;;;;;;;;20.00;99.90;;;;;;5114539;28;20341;-37
2022/05/03 07:38:25;;;;;;;;;;;20.00;99.90;;;;;;5114789;28;19908;-37
2022/05/03 07:40:50;;;;;;;;;;;20.00;99.90;;;;;;5096451;28;19907;-37
2022/05/03 07:43:16;;;;;;;;;;;20.00;99.90;;;;;;5114535;28;20393;-37
2022/05/03 07:45:41;;;;;;;;;;;20.00;99.90;;;;;;5114492;28;19926;-37
2022/05/03 07:48:07;;;;;;;;;;;19.90;99.90;;;;;;5114867;28;19923;-37
2022/05/03 07:50:33;;;;;;;;;;;19.80;99.90;;;;;;5114213;28;20388;-37
2022/05/03 07:52:58;;;;;;;;;;;19.90;99.90;;;;;;5114650;28;19926;-37
2022/05/03 07:55:24;;;;;;;;;;;19.90;99.90;;;;;;5114252;28;19960;-38
2022/05/03 07:57:49;;;;;;;;;;;19.90;99.90;;;;;;5114293;28;20211;-37
2022/05/03 08:00:15;;;;;;;;;;;19.90;99.90;;;;;;5114512;28;20321;-37
2022/05/03 08:02:41;;;;;;;;;;;19.80;99.90;;;;;;5114444;28;20386;-37
2022/05/03 08:05:08;;;;;;;;;;;19.80;99.90;;;;;;5113786;28;20339;-37
2022/05/03 08:07:34;;;;;;;;;;;19.90;99.90;;;;;;5114225;28;19999;-37
2022/05/03 08:10:00;;;;;;;;;;;19.80;99.90;;;;;;5114148;28;19976;-36
2022/05/03 08:12:26;;;;;;;;;;;19.80;99.90;;;;;;5113892;28;19908;-36
2022/05/03 08:14:53;;;;;;;;;;;19.90;99.90;;;;;;5114599;28;20112;-36
2022/05/03 08:17:19;;;;;;;;;;;19.90;99.90;;;;;;5096079;28;20321;-36
2022/05/03 08:19:44;;;;;;;;;;;19.80;99.90;;;;;;5113920;28;19915;-36
2022/05/03 08:22:10;;;;;;;;;;;19.80;99.90;;;;;;5114090;28;19908;-36
2022/05/03 08:24:36;;;;;;;;;;;19.80;99.90;;;;;;5113778;28;19915;-36
2022/05/03 08:27:03;;;;;;;;;;;19.80;99.90;;;;;;5113658;28;19912;-36
2022/05/03 08:29:29;;;;;;;;;;;19.80;99.90;;;;;;5113817;28;20002;-36
2022/05/03 08:31:55;;;;;;;;;;;19.80;99.90;;;;;;5113996;28;19920;-36
2022/05/03 08:34:20;;;;;;;;;;;19.70;99.90;;;;;;5114234;28;20407;-36
2022/05/03 08:42:01;;;;;;;;;;;19.70;99.90;;;;;;5114142;28;19914;-36
2022/05/03 08:42:16;;;;;;;;;;;19.60;99.90;;;;;;5114280;28;19915;-36
2022/05/03 08:44:41;;;;;;;;;;;19.60;99.90;;;;;;5113727;28;19908;-36
2022/05/03 08:47:07;;;;;;;;;;;19.60;99.90;;;;;;5113578;28;20289;-36
2022/05/03 08:49:33;;;;;;;;;;;19.70;99.90;;;;;;5113958;28;19991;-36
2022/05/03 08:52:00;;;;;;;;;;;19.80;99.90;;;;;;5113456;28;19912;-36
2022/05/03 08:54:26;;;;;;;;;;;19.80;99.90;;;;;;5095460;28;19916;-37
2022/05/03 08:56:51;;;;;;;;;;;19.80;99.90;;;;;;5113272;28;19908;-37
2022/05/03 08:59:17;;;;;;;;;;;19.90;99.90;;;;;;5113483;28;19919;-37
2022/05/03 09:01:43;;;;;;;;;;;19.90;99.90;;;;;;5113735;28;20407;-37
2022/05/03 09:04:09;;;;;;;;;;;19.80;99.90;;;;;;5113196;28;19907;-37
2022/05/03 09:06:45;;;;;;;;;;;19.90;99.90;;;;;;5113356;28;19929;-37
2022/05/03 09:09:12;;;;;;;;;;;19.90;99.90;;;;;;5113375;28;19983;-37
2022/05/03 09:11:46;;;;;;;;;;;20.00;99.90;;;;;;5113178;28;19995;-37
2022/05/03 09:14:47;;;;;;;;;;;20.00;99.90;;;;;;5113723;28;19912;-37
2022/05/03 09:17:13;;;;;;;;;;;19.90;99.90;;;;;;5074212;28;20448;-37
2022/05/03 09:19:38;;;;;;;;;;;19.90;99.90;;;;;;5108376;28;19907;-37
2022/05/03 09:24:55;;;;;;;;;;;19.90;99.90;;;;;;5117300;28;19918;-37
2022/05/03 09:27:21;;;;;;;;;;;19.90;99.90;;;;;;5117500;28;19968;-37
2022/05/03 09:29:58;;;;;;;;;;;20.00;99.90;;;;;;5117423;28;19919;-37
2022/05/03 09:32:33;;;;;;;;;;;19.90;99.90;;;;;;5117105;28;20012;-37
2022/05/03 09:34:59;;;;;;;;;;;19.80;99.90;;;;;;5117103;28;19966;-37
2022/05/03 09:37:37;;;;;;;;;;;19.90;99.90;;;;;;5116911;28;19915;-37
2022/05/03 09:40:03;;;;;;;;;;;19.80;99.90;;;;;;5117202;28;19940;-37
2022/05/03 09:42:29;;;;;;;;;;;19.80;99.90;;;;;;5116823;28;19915;-37
2022/05/03 09:44:58;;;;;;;;;;;19.80;99.90;;;;;;5117058;28;19911;-37
2022/05/03 09:47:34;;;;;;;;;;;19.70;99.90;;;;;;5116942;28;19916;-37
2022/05/03 09:50:00;;;;;;;;;;;19.70;99.90;;;;;;5117044;28;19908;-37
2022/05/03 09:52:30;;;;;;;;;;;19.70;99.90;;;;;;5116786;28;20306;-37
2022/05/03 09:54:59;;;;;;;;;;;19.70;99.90;;;;;;5116767;28;20354;-37
2022/05/03 09:57:26;;;;;;;;;;;19.80;99.90;;;;;;5116298;28;19914;-37
2022/05/03 09:59:52;;;;;;;;;;;19.80;99.90;;;;;;5116458;28;19998;-37
2022/05/03 10:02:19;;;;;;;;;;;19.80;99.90;;;;;;5116567;28;19912;-37
2022/05/03 10:04:45;;;;;;;;;;;19.80;99.90;;;;;;5116361;28;19908;-37
2022/05/03 10:07:11;;;;;;;;;;;19.80;99.90;;;;;;5116379;28;19912;-37
2022/05/03 10:09:37;;;;;;;;;;;19.80;99.90;;;;;;5116483;28;19912;-37
2022/05/03 10:12:04;;;;;;;;;;;19.80;99.90;;;;;;5116400;28;19919;-37
2022/05/03 10:14:29;;;;;;;;;;;19.80;99.90;;;;;;5116118;28;20255;-37
2022/05/03 10:22:26;;;;;;;;;;;19.80;99.90;;;;;;5116029;28;19918;-37
2022/05/03 10:24:55;;;;;;;;;;;19.80;99.90;;;;;;5097962;28;20002;-37
2022/05/03 10:27:27;;;;;;;;;;;19.90;99.90;;;;;;5116037;28;19912;-37
2022/05/03 10:30:11;;;;;;;;;;;19.80;99.90;;;;;;5116046;28;19964;-37
2022/05/03 10:32:36;;;;;;;;;;;19.90;99.90;;;;;;5115871;28;19924;-37
2022/05/03 10:35:04;;;;;;;;;;;19.90;99.90;;;;;;5115797;28;19915;-37
2022/05/03 10:37:29;;;;;;;;;;;19.90;99.90;;;;;;5115848;28;19918;-37
2022/05/03 10:39:59;;;;;;;;;;;19.90;99.90;;;;;;5115673;28;19907;-37
2022/05/03 10:42:28;;;;;;;;;;;19.90;99.90;;;;;;5115808;28;20219;-37
2022/05/03 10:44:57;;;;;;;;;;;19.80;99.90;;;;;;5115613;28;19914;-37
2022/05/03 10:47:44;;;;;;;;;;;19.90;99.90;;;;;;5115748;28;19912;-38
2022/05/03 10:50:12;;;;;;;;;;;19.80;99.90;;;;;;5115551;28;20003;-37
2022/05/03 10:52:38;;;;;;;;;;;19.90;99.90;;;;;;5115626;28;20426;-37
2022/05/03 10:55:07;;;;;;;;;;;19.90;99.90;;;;;;5115627;28;20380;-37
2022/05/03 10:57:53;;;;;;;;;;;19.90;99.90;;;;;;5115592;28;20275;-37
2022/05/03 11:00:38;;;;;;;;;;;19.90;99.90;;;;;;5115417;28;20011;-37
2022/05/03 11:03:19;;;;;;;;;;;19.80;99.90;;;;;;5115211;28;20319;-37
2022/05/03 11:06:05;;;;;;;;;;;19.80;99.90;;;;;;5115138;28;19960;-37
2022/05/03 11:08:30;;;;;;;;;;;19.80;99.90;;;;;;5114574;28;20269;-37
2022/05/03 11:10:56;;;;;;;;;;;19.80;99.90;;;;;;5115494;28;20002;-37
2022/05/03 11:13:38;;;;;;;;;;;19.80;99.90;;;;;;5114851;28;20274;-37
2022/05/03 11:16:22;;;;;;;;;;;19.90;99.90;;;;;;5114648;28;20328;-37
2022/05/03 11:18:47;;;;;;;;;;;19.80;99.90;;;;;;5114867;28;19911;-37
2022/05/03 11:21:16;;;;;;;;;;;19.80;99.90;;;;;;5114759;28;20226;-37
2022/05/03 11:23:52;;;;;;;;;;;19.80;99.90;;;;;;5114705;28;19957;-37
2022/05/03 11:26:23;;;;;;;;;;;19.80;99.90;;;;;;5114813;28;19938;-37
2022/05/03 11:28:49;;;;;;;;;;;19.90;99.90;;;;;;5114939;28;19972;-37
2022/05/03 11:31:17;;;;;;;;;;;19.80;99.90;;;;;;5114757;28;19938;-37
2022/05/03 11:33:53;;;;;;;;;;;19.90;99.90;;;;;;5114380;28;19920;-37
2022/05/03 11:36:19;;;;;;;;;;;19.80;99.90;;;;;;5114810;28;19934;-37
2022/05/03 11:38:52;;;;;;;;;;;19.80;99.90;;;;;;5114215;28;19908;-37
2022/05/03 11:41:24;;;;;;;;;;;19.80;99.90;;;;;;5114026;28;19994;-37
2022/05/03 11:43:50;;;;;;;;;;;19.80;99.90;;;;;;5114753;28;19908;-37
2022/05/03 11:46:16;;;;;;;;;;;19.80;99.90;;;;;;5114221;28;19912;-37
2022/05/03 11:48:42;;;;;;;;;;;19.80;99.90;;;;;;5115216;28;19947;-37
2022/05/03 11:56:37;;;;;;;;;;;19.80;99.90;;;;;;5114264;28;19930;-37
2022/05/03 11:59:03;;;;;;;;;;;19.80;99.90;;;;;;5096158;28;19908;-37
2022/05/03 12:01:32;;;;;;;;;;;19.80;99.90;;;;;;5114609;28;19931;-37
2022/05/03 12:03:59;;;;;;;;;;;19.80;99.90;;;;;;5114091;28;19915;-37
2022/05/03 12:06:32;;;;;;;;;;;19.80;99.90;;;;;;5114016;28;19911;-37
2022/05/03 12:08:58;;;;;;;;;;;19.80;99.90;;;;;;5096017;28;20416;-37
2022/05/03 12:11:26;;;;;;;;;;;19.80;99.90;;;;;;5113921;28;19908;-37
2022/05/03 12:13:52;;;;;;;;;;;19.70;99.90;;;;;;5113837;28;20252;-37
2022/05/03 12:16:22;;;;;;;;;;;19.70;99.90;;;;;;5114530;28;20023;-37
2022/05/03 12:18:49;;;;;;;;;;;19.80;99.90;;;;;;5114055;28;19923;-37
2022/05/03 12:21:16;;;;;;;;;;;19.70;99.90;;;;;;5113759;28;20273;-37
2022/05/03 12:23:41;;;;;;;;;;;19.80;99.90;;;;;;5113783;28;19908;-37
2022/05/03 12:26:16;;;;;;;;;;;19.80;99.90;;;;;;5113801;28;19926;-37
2022/05/03 12:28:46;;;;;;;;;;;19.80;99.90;;;;;;5113867;28;20053;-37
2022/05/03 12:31:12;;;;;;;;;;;19.80;99.90;;;;;;5113832;28;19908;-37
2022/05/03 12:33:46;;;;;;;;;;;19.80;99.90;;;;;;5114092;28;19924;-37
2022/05/03 12:36:25;;;;;;;;;;;19.70;99.90;;;;;;5113776;28;20319;-37
2022/05/03 12:38:51;;;;;;;;;;;19.80;99.90;;;;;;5113767;28;19935;-37
2022/05/03 12:41:28;;;;;;;;;;;19.80;99.90;;;;;;5113841;28;19965;-37
2022/05/03 12:44:00;;;;;;;;;;;19.80;99.90;;;;;;5113501;28;19907;-37
2022/05/03 12:46:27;;;;;;;;;;;19.70;99.90;;;;;;5113331;28;19983;-38
2022/05/03 12:48:52;;;;;;;;;;;19.80;99.90;;;;;;5113584;28;19912;-36
2022/05/03 12:51:18;;;;;;;;;;;19.80;99.90;;;;;;5115767;28;20343;-37
2022/05/03 12:53:46;;;;;;;;;;;19.70;99.90;;;;;;5117221;28;19914;-37
2022/05/03 12:58:58;;;;;;;;;;;19.70;99.90;;;;;;5117695;28;20010;-37
2022/05/03 13:01:23;;;;;;;;;;;19.70;99.90;;;;;;5117316;28;19908;-36
2022/05/03 13:03:49;;;;;;;;;;;19.70;99.90;;;;;;5117084;28;19915;-37
2022/05/03 13:06:15;;;;;;;;;;;19.60;99.90;;;;;;5116871;28;19973;-37
2022/05/03 13:08:40;;;;;;;;;;;19.60;99.90;;;;;;5116943;28;19923;-37
2022/05/03 13:11:06;;;;;;;;;;;19.60;99.90;;;;;;5117421;28;19915;-37
2022/05/03 13:13:31;;;;;;;;;;;19.60;99.90;;;;;;5117576;28;19914;-37
2022/05/03 13:15:57;;;;;;;;;;;19.60;99.90;;;;;;5117474;28;19919;-37
2022/05/03 13:18:24;;;;;;;;;;;19.60;99.90;;;;;;5117129;28;19987;-37
2022/05/03 13:20:50;;;;;;;;;;;19.60;99.90;;;;;;5117292;28;19992;-37
2022/05/03 13:23:15;;;;;;;;;;;19.50;99.90;;;;;;5117566;28;19915;-37
2022/05/03 13:25:41;;;;;;;;;;;19.50;99.90;;;;;;5116740;28;19911;-37
2022/05/03 13:28:06;;;;;;;;;;;19.50;99.90;;;;;;5116876;28;20335;-37
2022/05/03 13:30:32;;;;;;;;;;;19.60;99.90;;;;;;5117281;28;20002;-37
2022/05/03 13:32:59;;;;;;;;;;;19.50;99.90;;;;;;5116677;28;19924;-37
2022/05/03 13:40:55;;;;;;;;;;;19.50;99.90;;;;;;5116981;28;19999;-37
2022/05/03 13:43:22;;;;;;;;;;;19.60;99.90;;;;;;5117179;28;19961;-37
2022/05/03 13:45:48;;;;;;;;;;;19.50;99.90;;;;;;5116134;28;19959;-36
2022/05/03 13:48:13;;;;;;;;;;;19.50;99.90;;;;;;5116420;28;19912;-36
2022/05/03 13:50:40;;;;;;;;;;;19.50;99.90;;;;;;5116473;28;19908;-36
2022/05/03 13:53:08;;;;;;;;;;;19.50;99.90;;;;;;5116521;28;19912;-36
2022/05/03 13:55:34;;;;;;;;;;;19.50;99.90;;;;;;5116847;28;19908;-36
2022/05/03 13:57:59;;;;;;;;;;;19.50;99.90;;;;;;5116511;28;19908;-36
2022/05/03 14:00:26;;;;;;;;;;;19.50;99.90;;;;;;5116263;28;20247;-36
2022/05/03 14:02:52;;;;;;;;;;;19.50;99.90;;;;;;5115665;28;19908;-36
2022/05/03 14:05:17;;;;;;;;;;;19.50;99.90;;;;;;5116494;28;19918;-36
2022/05/03 14:07:43;;;;;;;;;;;19.50;99.90;;;;;;5116261;28;20378;-36
2022/05/03 14:10:09;;;;;;;;;;;19.40;99.90;;;;;;5116248;28;19908;-36
2022/05/03 14:12:35;;;;;;;;;;;19.40;99.90;;;;;;5116032;28;19912;-36
2022/05/03 14:15:01;;;;;;;;;;;19.50;99.90;;;;;;5116424;28;19923;-37
2022/05/03 14:17:26;;;;;;;;;;;19.40;99.90;;;;;;5116695;28;19908;-37
2022/05/03 14:19:52;;;;;;;;;;;19.40;99.90;;;;;;5116321;28;19908;-36
2022/05/03 14:22:19;;;;;;;;;;;19.40;99.90;;;;;;5116259;28;19912;-36
2022/05/03 14:24:45;;;;;;;;;;;19.40;99.90;;;;;;5116055;28;19908;-36
2022/05/03 14:27:11;;;;;;;;;;;19.40;99.90;;;;;;5115787;28;20007;-36
2022/05/03 14:29:36;;;;;;;;;;;19.40;99.90;;;;;;5115382;28;19912;-36
2022/05/03 14:32:02;;;;;;;;;;;19.40;99.90;;;;;;5115163;28;19920;-36
2022/05/03 14:34:28;;;;;;;;;;;19.40;99.90;;;;;;5115741;28;20014;-36
2022/05/03 14:36:53;;;;;;;;;;;19.40;99.90;;;;;;5097280;28;20285;-36
2022/05/03 14:39:19;;;;;;;;;;;19.40;99.90;;;;;;5115599;28;19965;-36
2022/05/03 14:41:44;;;;;;;;;;;19.40;99.90;;;;;;5115236;28;20323;-36
2022/05/03 14:44:10;;;;;;;;;;;19.40;99.90;;;;;;5115312;28;20294;-36
2022/05/03 14:46:35;;;;;;;;;;;19.40;99.90;;;;;;5115043;28;19912;-36
2022/05/03 14:49:01;;;;;;;;;;;19.30;99.90;;;;;;5115122;28;20273;-36
2022/05/03 14:51:27;;;;;;;;;;;19.40;99.90;;;;;;5115481;28;20357;-36
2022/05/03 14:53:52;;;;;;;;;;;19.40;99.90;;;;;;5115020;28;19908;-36
2022/05/03 15:04:40;;;;;;;;;;;19.30;99.90;;;;;;5115087;28;19953;-37
2022/05/03 15:07:06;;;;;;;;;;;19.30;99.90;;;;;;5114647;28;19912;-37